createdAt,value
2023-05-21T11:47:12.570Z,20.34
2023-05-21T11:49:40.596Z,20.43
2023-05-21T11:52:10.117Z,20.51
2023-05-21T11:54:41.562Z,20.61
2023-05-21T11:57:09.625Z,20.67
2023-05-21T11:59:37.567Z,20.80
2023-05-21T12:02:05.916Z,20.95
2023-05-21T12:04:36.509Z,21.10
2023-05-21T12:07:05.107Z,21.15
2023-05-21T12:11:21.766Z,21.20
2023-05-21T12:13:50.912Z,21.23
2023-05-21T12:17:02.916Z,21.25
2023-05-21T12:19:33.701Z,21.26
2023-05-21T12:22:03.181Z,21.28
2023-05-21T12:24:31.044Z,21.26
2023-05-21T12:27:01.079Z,21.28
2023-05-21T12:29:29.282Z,21.29
2023-05-21T12:32:02.041Z,21.33
2023-05-21T12:34:44.466Z,21.38
2023-05-21T12:37:13.256Z,21.38
2023-05-21T12:39:42.283Z,21.46
2023-05-21T12:42:10.318Z,21.52
2023-05-21T12:44:40.032Z,21.57
2023-05-21T12:47:09.212Z,21.60
2023-05-21T12:49:38.463Z,21.63
2023-05-21T12:52:07.299Z,21.72
2023-05-21T12:54:36.682Z,21.76
2023-05-21T12:57:09.203Z,21.78
2023-05-21T12:59:53.486Z,21.83
2023-05-21T13:03:01.828Z,21.93
2023-05-21T13:07:55.164Z,21.95
2023-05-21T13:12:19.226Z,22.08
2023-05-21T13:14:46.912Z,22.13
2023-05-21T13:17:14.724Z,21.77
2023-05-21T13:19:42.432Z,22.12
2023-05-21T13:22:11.439Z,22.22
2023-05-21T13:24:39.837Z,22.30
2023-05-21T13:27:08.024Z,22.36
2023-05-21T13:29:38.145Z,22.40
2023-05-21T13:32:06.688Z,22.46
2023-05-21T13:34:34.481Z,22.53
2023-05-21T13:37:02.185Z,22.60
2023-05-21T13:39:29.842Z,22.63
2023-05-21T13:41:57.524Z,22.61
2023-05-21T13:44:25.222Z,22.62
2023-05-21T13:46:54.381Z,22.64
2023-05-21T13:49:22.196Z,22.62
2023-05-21T13:51:49.882Z,22.65
2023-05-21T13:54:17.749Z,22.77
2023-05-21T13:56:45.502Z,22.89
2023-05-21T13:59:13.222Z,22.99
2023-05-21T14:01:40.958Z,23.05
2023-05-21T14:04:10.293Z,23.09
2023-05-21T14:06:38.243Z,23.11
2023-05-21T14:09:06.014Z,23.16
2023-05-21T14:11:33.715Z,23.16
2023-05-21T14:14:01.377Z,23.19
2023-05-21T14:16:29.083Z,23.28
2023-05-21T14:18:57.304Z,23.40
2023-05-21T14:21:42.916Z,23.44
2023-05-21T14:24:10.970Z,23.45
2023-05-21T14:29:11.040Z,23.42
2023-05-21T14:31:39.686Z,23.40
2023-05-21T14:34:08.739Z,23.38
2023-05-21T14:36:36.767Z,23.37
2023-05-21T14:39:04.708Z,23.41
2023-05-21T14:41:32.406Z,23.46
2023-05-21T14:44:00.138Z,23.53
2023-05-21T14:46:29.312Z,23.59
2023-05-21T14:48:59.220Z,23.57
2023-05-21T14:51:27.050Z,23.59
2023-05-21T14:53:55.720Z,23.58
2023-05-21T14:56:26.257Z,23.55
2023-05-21T14:58:54.195Z,23.54
2023-05-21T15:01:22.033Z,23.53
2023-05-21T15:03:51.489Z,23.54
2023-05-21T15:06:19.451Z,23.55
2023-05-21T15:08:47.177Z,23.66
2023-05-21T15:11:14.848Z,23.67
2023-05-21T15:23:17.162Z,23.74
2023-05-21T15:25:45.786Z,23.85
2023-05-21T15:32:11.681Z,24.05
2023-05-21T15:34:39.512Z,24.03
2023-05-21T15:37:07.553Z,24.02
2023-05-21T15:39:35.375Z,23.99
2023-05-21T15:42:03.157Z,23.97
2023-05-21T15:44:30.852Z,23.96
2023-05-21T15:46:58.743Z,23.93
2023-05-21T15:49:27.993Z,23.94
2023-05-21T15:51:57.894Z,23.95
2023-05-21T15:54:25.664Z,24.02
2023-05-21T15:56:53.305Z,24.04
2023-05-21T15:59:21.202Z,24.02
2023-05-21T16:01:49.166Z,24.02
2023-05-21T16:04:17.615Z,24.02
2023-05-21T16:06:47.526Z,24.02
2023-05-21T16:09:15.466Z,24.07
2023-05-21T16:11:44.711Z,24.12
2023-05-21T16:28:52.572Z,22.54
2023-05-21T16:31:20.461Z,22.58
2023-05-21T16:33:48.184Z,22.64
2023-05-21T16:36:55.987Z,22.69
2023-05-21T16:40:41.320Z,22.71
2023-05-21T16:43:09.384Z,22.74
2023-05-21T16:45:40.551Z,22.75
2023-05-21T16:50:32.143Z,22.72
2023-05-21T16:53:02.363Z,22.69
2023-05-21T16:55:30.201Z,22.65
2023-05-21T16:57:57.926Z,22.64
2023-05-21T17:00:26.167Z,22.58
2023-05-21T17:02:54.123Z,22.59
2023-05-21T17:05:22.270Z,22.57
2023-05-21T17:07:51.411Z,22.58
2023-05-21T17:10:20.215Z,22.54
2023-05-21T17:15:42.988Z,22.42
2023-05-21T17:18:11.579Z,22.42
2023-05-21T17:20:39.674Z,22.40
2023-05-21T17:23:07.418Z,22.39
2023-05-21T17:25:35.150Z,22.39
2023-05-21T17:28:02.859Z,22.37
2023-05-21T17:30:30.605Z,22.33
2023-05-21T17:33:01.868Z,22.32
2023-05-21T17:35:29.785Z,22.30
2023-05-21T17:37:57.617Z,22.31
2023-05-21T17:40:25.350Z,22.28
2023-05-21T17:42:53.211Z,22.29
2023-05-21T17:45:21.297Z,22.27
2023-05-21T17:47:49.224Z,22.25
2023-05-21T17:50:18.478Z,22.21
2023-05-21T17:52:46.264Z,22.19
2023-05-21T17:55:14.409Z,22.17
2023-05-21T17:57:42.182Z,22.14
2023-05-21T18:00:10.934Z,22.11
2023-05-21T18:02:38.831Z,22.11
2023-05-21T18:05:06.941Z,22.10
2023-05-21T18:07:36.142Z,22.11
2023-05-21T18:10:03.951Z,22.09
2023-05-21T18:12:31.617Z,22.08
2023-05-21T18:14:59.391Z,22.05
2023-05-21T18:17:27.116Z,22.06
2023-05-21T18:21:52.579Z,22.00
2023-05-21T18:24:20.344Z,22.00
2023-05-21T18:26:48.077Z,22.00
2023-05-21T18:29:15.817Z,21.99
2023-05-21T18:31:44.884Z,22.51
2023-05-21T18:34:12.705Z,22.64
2023-05-21T18:36:40.697Z,22.71
2023-05-21T18:39:10.603Z,22.78
2023-05-21T18:41:39.694Z,22.82
2023-05-21T18:44:07.410Z,22.86
2023-05-21T18:46:35.140Z,22.88
2023-05-21T18:51:31.537Z,22.91
2023-05-21T18:53:59.264Z,22.91
2023-05-21T18:56:28.441Z,22.95
2023-05-21T18:58:56.186Z,22.94
2023-05-21T19:01:23.978Z,22.95
2023-05-21T19:03:51.765Z,22.96
2023-05-21T19:06:25.024Z,22.97
2023-05-21T19:08:52.882Z,22.96
2023-05-21T19:11:23.505Z,22.93
2023-05-21T19:13:53.167Z,22.95
2023-05-21T19:16:21.348Z,22.91
2023-05-21T19:18:49.342Z,22.89
2023-05-21T19:21:17.292Z,22.88
2023-05-21T19:23:52.511Z,22.85
2023-05-21T19:26:21.598Z,22.85
2023-05-21T19:28:53.011Z,22.84
2023-05-21T19:31:23.284Z,22.79
2023-05-21T19:33:51.480Z,22.80
2023-05-21T19:36:19.760Z,22.78
2023-05-21T19:38:48.755Z,22.76
2023-05-21T19:41:16.768Z,22.76
2023-05-21T19:43:44.709Z,22.73
2023-05-21T19:46:12.724Z,22.73
2023-05-21T19:48:41.955Z,22.71
2023-05-21T19:51:09.764Z,22.69
2023-05-21T19:53:37.816Z,22.66
2023-05-21T19:56:05.595Z,22.61
2023-05-21T19:58:33.462Z,22.59
2023-05-21T20:01:01.571Z,22.55
2023-05-21T20:03:35.566Z,22.53
2023-05-21T20:06:05.184Z,22.51
2023-05-21T20:08:33.027Z,22.49
2023-05-21T20:11:00.854Z,22.46
2023-05-21T20:13:28.709Z,22.43
2023-05-21T20:15:56.468Z,22.41
2023-05-21T20:18:25.025Z,22.39
2023-05-21T20:20:53.038Z,22.38
2023-05-21T20:23:22.199Z,22.33
2023-05-21T20:25:50.127Z,22.33
2023-05-21T20:28:19.390Z,22.31
2023-05-21T20:30:57.483Z,22.27
2023-05-21T20:33:25.784Z,22.25
2023-05-21T20:35:53.553Z,22.25
2023-05-21T20:38:25.652Z,22.20
2023-05-21T20:40:53.454Z,22.17
2023-05-21T20:43:21.713Z,22.12
2023-05-21T20:45:50.032Z,22.10
2023-05-21T20:48:18.358Z,22.07
2023-05-21T20:50:46.302Z,22.08
2023-05-21T20:53:15.882Z,22.04
2023-05-21T20:55:46.935Z,22.04
2023-05-21T20:58:14.676Z,22.02
2023-05-21T21:00:44.936Z,22.01
2023-05-21T21:03:12.772Z,22.00
2023-05-21T21:05:40.652Z,21.94
2023-05-21T21:08:08.438Z,21.92
2023-05-21T21:10:36.404Z,21.93
2023-05-21T21:13:07.133Z,21.90
2023-05-21T21:15:34.883Z,21.89
2023-05-21T21:18:02.650Z,21.91
2023-05-21T21:20:30.429Z,21.87
2023-05-21T21:22:58.221Z,21.87
2023-05-21T21:25:25.932Z,21.91
2023-05-21T21:27:53.691Z,21.90
2023-05-21T21:30:22.843Z,21.88
2023-05-21T21:32:50.678Z,21.79
2023-05-21T21:35:18.558Z,21.73
2023-05-21T21:37:46.354Z,21.70
2023-05-21T21:40:15.098Z,21.70
2023-05-21T21:42:43.310Z,21.71
2023-05-21T21:45:12.282Z,21.71
2023-05-21T21:47:41.560Z,21.70
2023-05-21T21:50:09.992Z,21.74
2023-05-21T21:52:40.062Z,21.73
2023-05-21T21:55:09.918Z,21.73
2023-05-21T21:57:39.331Z,21.74
2023-05-21T22:00:11.484Z,21.74
2023-05-21T22:02:40.182Z,21.76
2023-05-21T22:05:09.932Z,21.76
2023-05-21T22:07:38.722Z,21.75
2023-05-21T22:10:07.465Z,21.73
2023-05-21T22:12:35.242Z,21.72
2023-05-21T22:15:05.316Z,21.72
2023-05-21T22:17:34.524Z,21.73
2023-05-21T22:20:02.422Z,21.71
2023-05-21T22:22:31.792Z,21.69
2023-05-21T22:24:59.491Z,21.70
2023-05-21T22:27:27.406Z,21.69
2023-05-21T22:29:55.178Z,21.69
2023-05-21T22:32:22.924Z,21.70
2023-05-21T22:34:50.719Z,21.71
2023-05-21T22:37:19.068Z,21.70
2023-05-21T22:39:48.258Z,21.70
2023-05-21T22:42:16.018Z,21.66
2023-05-21T22:44:43.815Z,21.64
2023-05-21T22:47:11.528Z,21.65
2023-05-21T22:49:40.593Z,21.64
2023-05-21T22:52:09.356Z,21.62
2023-05-21T22:54:37.345Z,21.62
2023-05-21T22:57:06.848Z,21.59
2023-05-21T22:59:34.561Z,21.59
2023-05-21T23:02:02.435Z,21.59
2023-05-21T23:04:43.193Z,21.56
2023-05-21T23:07:12.006Z,21.53
2023-05-21T23:09:39.724Z,21.50
2023-05-21T23:12:10.698Z,21.49
2023-05-21T23:14:38.532Z,21.45
2023-05-21T23:17:07.500Z,21.43
2023-05-21T23:19:35.480Z,21.37
2023-05-21T23:22:03.427Z,21.37
2023-05-21T23:24:31.220Z,21.36
2023-05-21T23:27:02.769Z,21.33
2023-05-21T23:29:31.934Z,21.32
2023-05-21T23:32:00.902Z,21.29
2023-05-21T23:34:28.817Z,21.29
2023-05-21T23:36:58.738Z,21.24
2023-05-21T23:39:28.489Z,21.18
2023-05-21T23:41:56.399Z,21.17
2023-05-21T23:44:24.123Z,21.11
2023-05-21T23:46:53.332Z,21.10
2023-05-21T23:49:21.034Z,21.14
2023-05-21T23:51:50.590Z,21.12
2023-05-21T23:54:18.621Z,21.08
2023-05-21T23:56:46.497Z,21.08
2023-05-21T23:59:16.161Z,21.07
